Time;durP1;ratioP1;P1;durP2;ratioP2;P2;SDS_P1;SDS_P2;PMS_P1;PMS_P2;Temp;Humidity;BMP_temperature;BMP_pressure;BME280_temperature;BME280_humidity;BME280_pressure;Samples;Min_cycle;Max_cycle;Signal;HPM_P1;HPM_P2
2022/10/30 00:01:14;;;;;;;15.85;11.50;;;24.90;53.20;;;;;;6168182;28;85002;-70
2022/10/30 00:04:14;;;;;;;15.88;10.73;;;24.80;53.20;;;;;;6168267;28;83295;-71
2022/10/30 00:07:15;;;;;;;17.65;11.70;;;24.80;53.20;;;;;;6173709;28;85806;-67
2022/10/30 00:10:15;;;;;;;19.73;11.90;;;24.80;53.20;;;;;;6172469;28;83041;-68
2022/10/30 00:13:16;;;;;;;15.77;10.80;;;24.80;53.30;;;;;;6164194;28;84261;-67
2022/10/30 00:16:16;;;;;;;19.15;11.90;;;24.80;53.30;;;;;;6171884;28;83569;-68
2022/10/30 00:19:17;;;;;;;15.73;11.32;;;24.80;53.30;;;;;;6174336;28;83162;-67
2022/10/30 00:22:18;;;;;;;19.48;11.25;;;24.80;53.10;;;;;;6169645;28;83120;-60
2022/10/30 00:25:18;;;;;;;16.55;11.00;;;24.80;53.10;;;;;;6175235;28;83660;-60
2022/10/30 00:28:19;;;;;;;14.48;10.07;;;24.80;53.10;;;;;;6171444;28;83631;-60
2022/10/30 00:31:19;;;;;;;18.95;11.43;;;24.80;53.00;;;;;;6156644;28;84279;-61
2022/10/30 00:34:20;;;;;;;18.63;10.75;;;24.80;53.00;;;;;;6170304;28;83152;-62
2022/10/30 00:37:20;;;;;;;17.67;11.65;;;24.80;52.90;;;;;;6170059;28;83185;-61
2022/10/30 00:40:21;;;;;;;16.55;10.75;;;24.80;52.80;;;;;;6180061;28;86114;-62
2022/10/30 00:43:21;;;;;;;18.27;11.05;;;24.80;52.90;;;;;;6174023;28;83118;-61
2022/10/30 00:46:22;;;;;;;16.02;10.93;;;24.80;52.70;;;;;;6166954;28;87030;-61
2022/10/30 00:49:22;;;;;;;18.42;10.52;;;24.80;52.80;;;;;;6171775;28;83654;-62
2022/10/30 00:52:23;;;;;;;19.73;10.68;;;24.80;52.70;;;;;;6197604;28;87618;-61
2022/10/30 00:55:24;;;;;;;18.63;11.30;;;24.70;52.50;;;;;;6163316;28;86063;-60
2022/10/30 00:58:24;;;;;;;18.13;11.30;;;24.70;52.60;;;;;;6193846;28;84508;-61
2022/10/30 01:01:25;;;;;;;20.58;11.43;;;24.70;52.70;;;;;;6197545;28;83438;-61
2022/10/30 01:04:25;;;;;;;16.02;10.52;;;24.70;52.60;;;;;;6197727;28;83095;-60
2022/10/30 01:07:26;;;;;;;16.75;10.20;;;24.80;52.80;;;;;;6196341;28;90079;-61
2022/10/30 01:10:26;;;;;;;15.57;10.75;;;24.80;52.80;;;;;;6196071;28;83433;-61
2022/10/30 01:13:27;;;;;;;16.77;10.57;;;24.80;52.80;;;;;;6196421;28;82956;-61
2022/10/30 01:16:28;;;;;;;14.77;10.52;;;24.80;52.70;;;;;;6196258;28;82923;-58
2022/10/30 01:19:29;;;;;;;15.10;10.30;;;24.80;52.50;;;;;;6179343;28;84114;-58
2022/10/30 01:22:30;;;;;;;19.33;9.93;;;24.70;52.60;;;;;;6190610;28;84771;-59
2022/10/30 01:25:30;;;;;;;13.45;9.32;;;24.70;52.50;;;;;;6195801;28;85137;-59
2022/10/30 01:28:35;;;;;;;17.00;9.95;;;24.70;52.60;;;;;;6179548;28;83504;-58
2022/10/30 01:31:36;;;;;;;14.30;9.35;;;24.70;52.50;;;;;;6182109;28;83591;-58
2022/10/30 01:34:36;;;;;;;18.52;9.52;;;24.80;52.50;;;;;;6199526;28;81759;-60
2022/10/30 01:37:37;;;;;;;13.20;9.75;;;24.70;52.50;;;;;;6214071;28;84117;-60
2022/10/30 01:40:38;;;;;;;14.63;9.60;;;24.70;52.50;;;;;;6199365;28;80049;-60
2022/10/30 01:43:38;;;;;;;14.85;9.55;;;24.70;52.50;;;;;;6198164;28;83146;-60
2022/10/30 01:46:41;;;;;;;15.93;10.32;;;24.70;52.50;;;;;;6212242;28;83491;-61
2022/10/30 01:49:42;;;;;;;12.98;9.27;;;24.70;52.50;;;;;;6178675;28;83181;-60
2022/10/30 01:52:43;;;;;;;14.77;9.98;;;24.70;53.10;;;;;;6199557;28;83118;-60
2022/10/30 01:55:44;;;;;;;14.05;8.73;;;24.70;52.50;;;;;;6194765;28;84612;-60
2022/10/30 01:58:45;;;;;;;13.85;9.18;;;24.70;52.50;;;;;;6199198;28;85734;-61
2022/10/30 02:01:46;;;;;;;13.80;9.45;;;24.70;52.50;;;;;;6194658;28;81023;-60
2022/10/30 02:04:46;;;;;;;14.98;9.15;;;24.70;52.60;;;;;;6173796;28;80257;-60
2022/10/30 02:07:47;;;;;;;15.25;9.18;;;24.70;52.50;;;;;;6158334;28;83536;-61
2022/10/30 02:10:48;;;;;;;14.82;9.30;;;24.70;52.50;;;;;;6179645;28;83771;-59
2022/10/30 02:13:49;;;;;;;12.27;8.60;;;24.70;52.50;;;;;;6157819;28;83656;-59
2022/10/30 02:16:49;;;;;;;14.10;9.70;;;24.70;52.60;;;;;;6155521;28;85246;-60
2022/10/30 02:19:52;;;;;;;14.88;9.50;;;24.70;52.60;;;;;;6174742;28;83710;-61
2022/10/30 02:22:53;;;;;;;15.63;9.07;;;24.70;52.60;;;;;;6189662;28;81614;-61
2022/10/30 02:25:53;;;;;;;15.07;9.23;;;24.70;52.40;;;;;;6171096;28;80186;-60
2022/10/30 02:28:54;;;;;;;15.48;8.90;;;24.70;52.40;;;;;;6174971;28;82892;-60
2022/10/30 02:31:54;;;;;;;14.57;9.00;;;24.70;52.50;;;;;;6172345;28;80788;-57
2022/10/30 02:34:55;;;;;;;13.85;9.00;;;24.70;52.50;;;;;;6155629;28;87801;-57
2022/10/30 02:37:56;;;;;;;14.25;8.70;;;24.70;52.50;;;;;;6152436;28;83267;-57
2022/10/30 02:40:56;;;;;;;11.73;8.52;;;24.70;52.50;;;;;;6175114;28;81082;-58
2022/10/30 02:43:57;;;;;;;16.38;9.30;;;24.60;52.50;;;;;;6152981;28;83314;-57
2022/10/30 02:46:57;;;;;;;12.93;8.35;;;24.60;52.30;;;;;;6165761;28;81172;-59
2022/10/30 02:49:58;;;;;;;15.23;9.52;;;24.70;52.40;;;;;;6176521;28;80754;-62
2022/10/30 02:52:59;;;;;;;11.43;9.02;;;24.70;52.40;;;;;;6176438;28;83443;-61
2022/10/30 02:56:01;;;;;;;13.38;8.65;;;24.70;52.50;;;;;;6164053;28;81460;-60
2022/10/30 02:59:01;;;;;;;15.25;9.55;;;24.70;52.30;;;;;;6164636;28;83372;-60
2022/10/30 03:02:02;;;;;;;15.25;8.63;;;24.70;52.40;;;;;;6204283;28;80747;-61
2022/10/30 03:05:02;;;;;;;13.55;9.07;;;24.70;52.30;;;;;;6199976;28;82445;-60
2022/10/30 03:08:03;;;;;;;15.73;9.20;;;24.60;52.20;;;;;;6193110;28;81863;-60
2022/10/30 03:11:04;;;;;;;13.98;8.73;;;24.60;52.30;;;;;;6209280;28;83880;-60
2022/10/30 03:14:04;;;;;;;14.20;9.82;;;24.60;52.30;;;;;;6177166;28;81571;-61
2022/10/30 03:17:05;;;;;;;16.17;9.82;;;24.60;52.20;;;;;;6212785;28;83508;-62
2022/10/30 03:20:05;;;;;;;15.50;8.90;;;24.70;52.50;;;;;;6195433;28;83413;-61
2022/10/30 03:23:07;;;;;;;14.82;9.57;;;24.70;52.40;;;;;;6193727;28;80938;-61
2022/10/30 03:26:07;;;;;;;16.70;9.15;;;24.60;52.20;;;;;;6193710;28;81013;-61
2022/10/30 03:29:19;;;;;;;14.73;9.93;;;24.70;52.20;;;;;;6199210;28;88022;-62
2022/10/30 03:32:20;;;;;;;15.35;9.45;;;24.60;52.10;;;;;;6195802;28;82314;-62
2022/10/30 03:35:25;;;;;;;14.57;9.07;;;24.60;52.30;;;;;;6200932;28;81535;-63
2022/10/30 03:38:26;;;;;;;16.00;10.00;;;24.70;52.30;;;;;;6201422;28;83651;-61
2022/10/30 03:41:26;;;;;;;15.27;9.35;;;24.60;52.30;;;;;;6173698;28;95428;-62
2022/10/30 03:44:27;;;;;;;15.43;8.40;;;24.70;52.30;;;;;;6200790;28;82712;-59
2022/10/30 03:47:29;;;;;;;13.65;8.75;;;24.60;52.40;;;;;;6185023;28;80999;-60
2022/10/30 03:50:29;;;;;;;15.82;9.00;;;24.70;52.40;;;;;;6200956;28;83110;-59
2022/10/30 03:53:30;;;;;;;12.05;8.48;;;24.70;52.30;;;;;;6199926;28;83669;-61
2022/10/30 03:56:30;;;;;;;14.25;8.63;;;24.70;52.30;;;;;;6178441;28;84709;-59
2022/10/30 03:59:33;;;;;;;13.05;9.15;;;24.70;52.30;;;;;;6182832;28;84711;-58
2022/10/30 04:02:52;;;;;;;12.23;7.63;;;24.70;52.30;;;;;;6199036;28;83576;-61
2022/10/30 04:05:53;;;;;;;12.68;8.68;;;24.60;52.20;;;;;;6182443;28;82951;-60
2022/10/30 04:08:54;;;;;;;11.85;8.40;;;24.70;52.10;;;;;;6184348;28;83446;-62
2022/10/30 04:11:55;;;;;;;14.43;8.55;;;24.70;52.10;;;;;;6180164;28;82343;-61
2022/10/30 04:14:56;;;;;;;10.98;8.27;;;24.70;52.20;;;;;;6186266;28;83630;-59
2022/10/30 04:17:56;;;;;;;11.93;8.48;;;24.70;52.20;;;;;;6160495;28;83708;-61
2022/10/30 04:20:57;;;;;;;15.05;7.97;;;24.70;52.20;;;;;;6174845;28;87199;-61
2022/10/30 04:23:57;;;;;;;15.40;8.55;;;24.60;52.00;;;;;;6143887;28;82194;-60
2022/10/30 04:27:01;;;;;;;14.13;8.63;;;24.70;52.00;;;;;;6156719;28;83427;-60
2022/10/30 04:30:01;;;;;;;12.27;8.75;;;24.60;52.00;;;;;;6175968;28;83321;-60
2022/10/30 04:33:02;;;;;;;18.85;9.18;;;24.60;51.90;;;;;;6167013;28;81555;-60
2022/10/30 04:36:04;;;;;;;13.23;9.07;;;24.60;51.90;;;;;;6183901;28;82175;-60
2022/10/30 04:39:05;;;;;;;16.42;8.93;;;24.60;51.80;;;;;;6188776;28;82686;-76
2022/10/30 04:42:07;;;;;;;14.60;8.77;;;24.60;51.80;;;;;;6197110;28;82426;-71
2022/10/30 04:45:08;;;;;;;14.68;9.00;;;24.60;51.80;;;;;;6174538;28;83724;-72
2022/10/30 04:48:09;;;;;;;13.55;8.50;;;24.60;51.70;;;;;;6182329;28;82127;-71
2022/10/30 04:51:10;;;;;;;12.10;8.25;;;24.60;51.80;;;;;;6202611;28;83403;-69
2022/10/30 04:54:11;;;;;;;13.15;8.32;;;24.60;51.80;;;;;;6164300;28;83445;-73
2022/10/30 04:57:12;;;;;;;13.38;9.10;;;24.70;51.90;;;;;;6168703;28;83149;-66
2022/10/30 05:00:15;;;;;;;14.35;8.73;;;24.60;51.90;;;;;;6156863;28;82730;-74
2022/10/30 05:03:16;;;;;;;14.85;8.73;;;24.70;51.90;;;;;;6163053;28;81182;-76
2022/10/30 05:06:17;;;;;;;15.07;9.43;;;24.60;51.80;;;;;;6185360;28;83332;-70
2022/10/30 05:09:17;;;;;;;15.60;8.57;;;24.60;51.90;;;;;;6163661;28;80108;-72
2022/10/30 05:12:18;;;;;;;15.32;9.35;;;24.60;51.80;;;;;;6150225;28;83653;-73
2022/10/30 05:15:26;;;;;;;18.30;9.23;;;24.60;51.80;;;;;;6137583;28;83324;-63
2022/10/30 05:18:26;;;;;;;14.90;9.73;;;24.70;51.90;;;;;;6171833;28;82945;-61
2022/10/30 05:21:27;;;;;;;17.98;8.82;;;24.70;51.90;;;;;;6165012;28;85146;-69
2022/10/30 05:24:27;;;;;;;11.20;8.02;;;24.70;52.30;;;;;;6152816;28;81825;-62
2022/10/30 05:27:28;;;;;;;18.52;8.98;;;24.70;52.30;;;;;;6188066;28;83012;-65
2022/10/30 05:30:29;;;;;;;19.85;8.77;;;24.70;52.50;;;;;;6206999;28;83376;-63
2022/10/30 05:33:30;;;;;;;20.80;9.23;;;24.70;52.40;;;;;;6186554;28;83402;-57
2022/10/30 05:36:31;;;;;;;17.10;9.02;;;24.70;52.50;;;;;;6177425;28;83537;-54
2022/10/30 05:39:32;;;;;;;16.17;8.05;;;24.70;52.30;;;;;;6189034;28;84706;-56
2022/10/30 05:42:32;;;;;;;16.30;8.43;;;24.70;52.30;;;;;;6182837;28;83463;-60
2022/10/30 05:45:36;;;;;;;24.25;8.57;;;24.70;52.30;;;;;;6177960;28;83676;-60
2022/10/30 05:48:38;;;;;;;16.02;8.80;;;24.70;52.40;;;;;;6228353;28;83365;-56
2022/10/30 05:51:38;;;;;;;19.65;8.80;;;24.70;52.30;;;;;;6181993;28;83556;-58
2022/10/30 05:54:39;;;;;;;13.73;8.65;;;24.70;52.30;;;;;;6179408;28;81904;-54
2022/10/30 05:57:45;;;;;;;17.48;8.95;;;24.80;52.60;;;;;;6196016;28;83599;-58
2022/10/30 06:00:46;;;;;;;15.50;8.75;;;24.80;52.40;;;;;;6199814;28;80599;-54
2022/10/30 06:03:51;;;;;;;15.23;8.33;;;24.80;52.50;;;;;;6185849;28;80614;-56
2022/10/30 06:06:52;;;;;;;17.02;8.32;;;24.90;52.60;;;;;;6181570;28;83314;-57
2022/10/30 06:09:52;;;;;;;16.30;8.65;;;24.90;52.60;;;;;;6178514;28;84323;-59
2022/10/30 06:13:09;;;;;;;16.65;7.93;;;24.90;52.40;;;;;;6197132;28;83639;-59
2022/10/30 06:16:14;;;;;;;15.82;8.38;;;24.90;52.40;;;;;;6196029;28;85833;-59
2022/10/30 06:19:34;;;;;;;18.48;9.60;;;24.90;52.50;;;;;;6191661;28;85764;-56
2022/10/30 06:22:48;;;;;;;22.58;11.00;;;24.90;52.60;;;;;;6176903;28;83498;-58
2022/10/30 06:25:49;;;;;;;21.00;11.60;;;24.90;53.20;;;;;;6192644;28;83277;-59
2022/10/30 06:29:03;;;;;;;28.40;11.15;;;24.90;53.10;;;;;;6165527;28;86369;-53
2022/10/30 06:32:04;;;;;;;20.38;11.45;;;25.00;53.40;;;;;;6165337;28;85881;-51
2022/10/30 06:35:07;;;;;;;21.25;12.60;;;25.00;53.50;;;;;;6182698;28;89483;-56
2022/10/30 06:38:10;;;;;;;22.85;13.98;;;25.10;53.70;;;;;;6176630;28;84853;-51
2022/10/30 06:41:11;;;;;;;21.05;13.18;;;25.10;53.90;;;;;;6178990;28;84043;-54
2022/10/30 06:44:30;;;;;;;29.10;15.30;;;25.10;54.00;;;;;;6193869;28;83683;-55
2022/10/30 06:47:31;;;;;;;28.60;15.65;;;25.10;53.80;;;;;;6206933;28;86083;-58
2022/10/30 06:50:31;;;;;;;22.40;14.95;;;25.10;53.50;;;;;;6195341;28;83581;-51
2022/10/30 06:53:32;;;;;;;23.45;14.57;;;25.10;53.30;;;;;;6177388;28;86200;-52
2022/10/30 06:56:52;;;;;;;20.17;13.32;;;25.20;53.20;;;;;;6195083;28;89770;-61
2022/10/30 07:00:11;;;;;;;18.75;11.60;;;25.20;52.80;;;;;;6187141;28;88099;-58
2022/10/30 07:03:30;;;;;;;18.88;11.60;;;25.10;52.40;;;;;;6187888;28;85061;-54
2022/10/30 07:06:31;;;;;;;18.27;12.00;;;25.20;52.60;;;;;;6186544;28;86062;-57
2022/10/30 07:09:33;;;;;;;20.63;10.52;;;25.20;52.40;;;;;;6189881;28;86389;-58
2022/10/30 07:12:33;;;;;;;26.45;10.80;;;25.30;52.40;;;;;;6187850;28;83240;-57
2022/10/30 07:15:44;;;;;;;16.75;9.10;;;25.30;52.20;;;;;;6161635;28;86076;-57
2022/10/30 07:18:55;;;;;;;12.25;9.00;;;25.30;52.00;;;;;;6141745;28;83759;-57
2022/10/30 07:21:55;;;;;;;20.25;10.02;;;25.40;51.90;;;;;;6158264;28;83705;-58
2022/10/30 07:24:56;;;;;;;19.13;9.38;;;25.40;51.60;;;;;;6124919;28;83648;-57
2022/10/30 07:28:14;;;;;;;16.27;9.02;;;25.40;51.60;;;;;;6158325;28;84410;-57
2022/10/30 07:31:24;;;;;;;16.42;9.73;;;25.40;51.40;;;;;;6152790;28;83366;-57
2022/10/30 07:34:24;;;;;;;13.82;9.05;;;25.40;51.30;;;;;;6152075;28;80564;-58
2022/10/30 07:37:51;;;;;;;18.02;9.25;;;25.40;51.20;;;;;;6149699;28;81228;-64
2022/10/30 07:40:52;;;;;;;15.10;9.38;;;25.40;51.20;;;;;;6147847;28;81676;-59
2022/10/30 07:44:12;;;;;;;17.48;10.18;;;25.30;51.20;;;;;;6148376;28;81735;-60
2022/10/30 07:47:22;;;;;;;14.27;9.40;;;25.30;51.30;;;;;;6146201;28;84432;-60
2022/10/30 07:50:35;;;;;;;21.20;9.82;;;25.40;51.20;;;;;;6149199;28;85883;-59
2022/10/30 07:53:35;;;;;;;19.52;8.50;;;25.40;51.00;;;;;;6147177;28;83141;-58
2022/10/30 07:56:37;;;;;;;13.55;8.63;;;25.50;50.90;;;;;;6140574;28;81613;-58
2022/10/30 08:00:13;;;;;;;13.07;8.60;;;25.60;50.90;;;;;;6151354;28;84821;-54
2022/10/30 08:03:13;;;;;;;18.05;8.27;;;25.60;51.00;;;;;;6151191;28;83438;-53
2022/10/30 08:06:25;;;;;;;12.63;8.23;;;25.70;51.30;;;;;;6146964;28;83497;-53
2022/10/30 08:09:26;;;;;;;17.85;8.65;;;25.70;51.30;;;;;;6149503;28;83363;-55
2022/10/30 08:12:26;;;;;;;16.52;9.20;;;25.70;51.20;;;;;;6143334;28;81267;-61
2022/10/30 08:15:27;;;;;;;17.77;9.55;;;25.70;51.20;;;;;;6149415;28;83402;-61
2022/10/30 08:18:28;;;;;;;13.07;8.10;;;25.70;51.20;;;;;;6148263;28;86528;-60
2022/10/30 08:21:28;;;;;;;17.55;8.65;;;25.70;51.10;;;;;;6148727;28;83168;-65
2022/10/30 08:24:35;;;;;;;24.77;9.15;;;25.70;51.40;;;;;;6140229;28;83131;-66
2022/10/30 08:27:35;;;;;;;23.90;9.85;;;25.80;51.80;;;;;;6148788;28;83285;-69
2022/10/30 08:30:37;;;;;;;19.00;9.27;;;25.70;51.70;;;;;;6148341;28;83888;-63
2022/10/30 08:33:38;;;;;;;22.20;9.77;;;25.70;51.80;;;;;;6150074;28;82232;-65
2022/10/30 08:36:59;;;;;;;21.38;10.63;;;25.70;51.30;;;;;;6130375;28;83622;-59
2022/10/30 08:39:59;;;;;;;24.05;11.07;;;25.70;51.80;;;;;;6133986;28;83373;-57
2022/10/30 08:43:14;;;;;;;20.25;10.40;;;25.70;50.90;;;;;;6135890;28;86805;-56
2022/10/30 08:46:15;;;;;;;14.23;9.82;;;25.60;51.00;;;;;;6137359;28;86045;-56
2022/10/30 08:49:15;;;;;;;18.48;9.73;;;25.60;51.00;;;;;;6142437;28;85402;-56
2022/10/30 08:52:23;;;;;;;15.65;9.75;;;25.70;51.00;;;;;;6140859;28;87449;-55
2022/10/30 08:55:28;;;;;;;13.95;9.02;;;25.70;50.40;;;;;;6143488;28;83364;-56
2022/10/30 08:58:29;;;;;;;22.48;9.85;;;25.60;50.30;;;;;;6141189;28;84726;-59
2022/10/30 09:01:31;;;;;;;16.92;8.85;;;25.60;50.30;;;;;;6148113;28;83110;-59
2022/10/30 09:04:50;;;;;;;15.55;8.80;;;25.50;50.50;;;;;;6128208;28;80450;-58
2022/10/30 09:08:09;;;;;;;22.08;9.05;;;25.50;50.20;;;;;;6152135;28;80268;-58
2022/10/30 09:11:38;;;;;;;16.40;8.25;;;25.50;50.30;;;;;;6137219;28;82198;-57
2022/10/30 09:14:39;;;;;;;21.38;9.32;;;25.60;50.90;;;;;;6150868;28;82988;-63
2022/10/30 09:17:42;;;;;;;20.02;8.73;;;25.50;50.30;;;;;;6147721;28;83565;-65
2022/10/30 09:20:42;;;;;;;20.67;8.40;;;25.50;50.20;;;;;;6154463;28;81529;-64
2022/10/30 09:23:43;;;;;;;17.20;8.45;;;25.50;50.30;;;;;;6129778;28;83054;-63
2022/10/30 09:27:02;;;;;;;29.58;9.00;;;25.50;50.30;;;;;;6148534;28;80664;-65
2022/10/30 09:30:08;;;;;;;16.25;8.38;;;25.50;50.30;;;;;;6151374;28;83386;-63
2022/10/30 09:33:14;;;;;;;12.35;7.55;;;25.40;50.10;;;;;;6126943;28;82294;-58
2022/10/30 09:36:34;;;;;;;15.48;8.27;;;25.40;50.20;;;;;;6140384;28;81147;-58
2022/10/30 09:39:35;;;;;;;13.38;8.73;;;25.50;50.30;;;;;;6147544;28;82242;-59
2022/10/30 09:42:36;;;;;;;14.15;7.88;;;25.50;50.20;;;;;;6145932;28;83607;-57
2022/10/30 09:45:41;;;;;;;12.90;7.47;;;25.60;50.40;;;;;;6146069;28;83198;-57
2022/10/30 09:48:42;;;;;;;14.77;8.25;;;25.70;50.30;;;;;;6160308;28;83511;-59
2022/10/30 09:51:47;;;;;;;17.15;7.93;;;25.70;50.20;;;;;;6155649;28;82239;-60
2022/10/30 09:54:48;;;;;;;17.90;7.93;;;25.80;50.20;;;;;;6144215;28;83384;-59
2022/10/30 09:57:49;;;;;;;16.25;7.97;;;25.80;50.10;;;;;;6157935;28;82028;-58
2022/10/30 10:00:51;;;;;;;17.63;7.90;;;25.80;50.10;;;;;;6147618;28;83259;-59
2022/10/30 10:03:57;;;;;;;19.95;8.20;;;25.90;50.10;;;;;;6151763;28;82348;-60
2022/10/30 10:07:17;;;;;;;12.95;7.55;;;25.90;49.90;;;;;;6137236;28;80577;-59
2022/10/30 10:10:37;;;;;;;16.13;8.07;;;25.90;50.10;;;;;;6140089;28;86891;-60
2022/10/30 10:13:45;;;;;;;18.50;8.82;;;25.90;50.30;;;;;;6154252;28;86976;-60
2022/10/30 10:16:47;;;;;;;19.80;9.18;;;25.90;50.00;;;;;;6185090;28;84700;-59
2022/10/30 10:19:48;;;;;;;16.60;8.07;;;25.90;50.00;;;;;;6199044;28;80946;-57
2022/10/30 10:22:48;;;;;;;17.42;8.38;;;25.90;50.20;;;;;;6184727;28;87484;-58
2022/10/30 10:25:50;;;;;;;16.20;7.72;;;25.90;50.60;;;;;;6200037;28;81266;-54
2022/10/30 10:28:50;;;;;;;14.23;7.95;;;25.90;51.10;;;;;;6197009;28;82599;-63
2022/10/30 10:31:51;;;;;;;18.50;8.52;;;26.00;51.10;;;;;;6199350;28;80114;-63
2022/10/30 10:34:51;;;;;;;12.70;7.68;;;25.90;51.70;;;;;;6201353;28;80927;-63
2022/10/30 10:37:52;;;;;;;13.60;7.20;;;26.10;52.20;;;;;;6193536;28;81878;-64
2022/10/30 10:40:52;;;;;;;14.02;7.45;;;26.20;52.50;;;;;;6195720;28;80745;-64
2022/10/30 10:43:53;;;;;;;13.73;8.05;;;26.10;52.10;;;;;;6200010;28;80823;-64
2022/10/30 10:46:53;;;;;;;12.40;7.68;;;26.10;53.40;;;;;;6199096;28;81185;-64
2022/10/30 10:49:54;;;;;;;14.05;7.38;;;26.00;54.20;;;;;;6195732;28;80357;-64
2022/10/30 10:52:54;;;;;;;23.70;7.82;;;25.90;54.70;;;;;;6190491;28;81630;-63
2022/10/30 10:55:55;;;;;;;20.20;7.95;;;25.90;55.80;;;;;;6198303;28;80318;-63
2022/10/30 10:58:55;;;;;;;16.30;7.13;;;25.80;55.70;;;;;;6201096;28;80744;-63
2022/10/30 11:01:56;;;;;;;18.73;8.25;;;25.80;55.00;;;;;;6198178;28;80532;-62
2022/10/30 11:04:56;;;;;;;11.57;7.15;;;25.80;55.20;;;;;;6193386;28;81456;-54
2022/10/30 11:07:57;;;;;;;14.02;7.47;;;25.80;56.10;;;;;;6199759;28;82091;-60
2022/10/30 11:10:57;;;;;;;15.25;7.18;;;25.80;54.60;;;;;;6202371;28;80509;-59
2022/10/30 11:13:58;;;;;;;17.13;7.90;;;25.70;54.40;;;;;;6201630;28;87542;-57
2022/10/30 11:16:58;;;;;;;17.88;7.20;;;25.70;55.20;;;;;;6200240;28;80569;-58
2022/10/30 11:19:59;;;;;;;14.90;7.03;;;25.70;55.10;;;;;;6202879;28;87149;-59
2022/10/30 11:22:59;;;;;;;18.70;7.15;;;25.70;55.40;;;;;;6190832;28;81489;-68
2022/10/30 11:26:00;;;;;;;19.42;6.72;;;25.70;52.90;;;;;;6203363;28;80618;-61
2022/10/30 11:29:01;;;;;;;18.50;7.28;;;25.70;52.30;;;;;;6202581;28;81056;-72
2022/10/30 11:32:01;;;;;;;12.57;6.10;;;25.70;52.10;;;;;;6180131;28;83632;-65
2022/10/30 11:35:02;;;;;;;14.23;6.85;;;25.70;52.00;;;;;;6202389;28;87464;-68
2022/10/30 11:38:02;;;;;;;15.70;6.35;;;25.70;51.40;;;;;;6203313;28;80407;-72
2022/10/30 11:41:03;;;;;;;15.40;7.07;;;25.70;51.40;;;;;;6200638;28;87401;-70
2022/10/30 11:44:03;;;;;;;29.00;13.18;;;25.80;51.60;;;;;;6195665;28;80614;-75
2022/10/30 11:47:04;;;;;;;19.15;10.98;;;25.80;51.70;;;;;;6175850;28;84459;-73
2022/10/30 11:50:05;;;;;;;23.15;9.70;;;25.90;51.80;;;;;;6178296;28;83160;-69
2022/10/30 11:53:05;;;;;;;20.83;9.95;;;25.90;52.00;;;;;;6169759;28;83674;-74
2022/10/30 11:56:06;;;;;;;20.88;8.73;;;25.90;52.20;;;;;;6175091;28;80572;-78
2022/10/30 11:59:06;;;;;;;20.85;8.80;;;25.90;51.90;;;;;;6175444;28;85454;-65
2022/10/30 12:02:07;;;;;;;16.67;8.38;;;26.00;51.90;;;;;;6174429;28;81646;-62
2022/10/30 12:05:07;;;;;;;23.05;8.55;;;26.10;51.70;;;;;;6154691;28;83924;-65
2022/10/30 12:08:08;;;;;;;18.23;7.72;;;26.10;51.90;;;;;;6174451;28;81436;-66
2022/10/30 12:11:08;;;;;;;14.77;7.18;;;26.30;51.80;;;;;;6173633;28;80950;-65
2022/10/30 12:14:09;;;;;;;15.85;7.00;;;26.30;51.80;;;;;;6171585;28;81141;-64
2022/10/30 12:17:10;;;;;;;18.92;8.25;;;26.30;51.50;;;;;;6173938;28;80552;-57
2022/10/30 12:20:10;;;;;;;14.98;7.15;;;26.40;51.40;;;;;;6171291;28;80499;-58
2022/10/30 12:23:11;;;;;;;21.70;7.50;;;26.40;51.20;;;;;;6170984;28;80391;-56
2022/10/30 12:26:11;;;;;;;16.95;7.38;;;26.50;51.20;;;;;;6173055;28;81041;-57
2022/10/30 12:29:12;;;;;;;12.82;6.32;;;26.40;51.10;;;;;;6170465;28;80648;-59
2022/10/30 12:32:12;;;;;;;19.77;6.85;;;26.40;51.20;;;;;;6178423;28;80387;-58
2022/10/30 12:35:13;;;;;;;17.65;7.50;;;26.40;51.00;;;;;;6184957;28;83216;-58
2022/10/30 12:38:13;;;;;;;18.70;7.13;;;26.40;51.30;;;;;;6194971;28;80523;-54
2022/10/30 12:41:14;;;;;;;15.55;7.35;;;26.50;51.10;;;;;;6180484;28;80376;-59
2022/10/30 12:44:14;;;;;;;20.83;7.55;;;26.50;51.10;;;;;;6172803;28;83610;-59
2022/10/30 12:47:15;;;;;;;18.48;7.18;;;26.50;51.10;;;;;;6186701;28;80175;-58
2022/10/30 12:50:15;;;;;;;16.08;6.82;;;26.50;51.10;;;;;;6171753;28;80510;-61
2022/10/30 12:53:16;;;;;;;18.17;7.60;;;26.50;51.20;;;;;;6170063;28;80927;-59
2022/10/30 12:56:16;;;;;;;15.23;7.63;;;26.50;51.40;;;;;;6167731;28;83766;-61
2022/10/30 12:59:17;;;;;;;14.70;7.90;;;26.40;51.50;;;;;;6169963;28;80539;-65
2022/10/30 13:02:17;;;;;;;17.15;7.45;;;26.40;51.00;;;;;;6163993;28;81941;-69
2022/10/30 13:05:18;;;;;;;15.88;6.95;;;26.40;51.40;;;;;;6169553;28;80874;-64
2022/10/30 13:08:18;;;;;;;15.40;6.55;;;26.50;51.40;;;;;;6185560;28;80892;-67
2022/10/30 13:11:19;;;;;;;18.67;7.32;;;26.50;51.20;;;;;;6167930;28;80564;-68
2022/10/30 13:14:19;;;;;;;15.75;7.50;;;26.50;51.20;;;;;;6159428;28;81252;-66
2022/10/30 13:17:20;;;;;;;19.23;8.35;;;26.50;51.10;;;;;;6171648;28;80632;-67
2022/10/30 13:20:20;;;;;;;15.80;6.70;;;26.50;51.10;;;;;;6168484;28;80429;-73
2022/10/30 13:23:21;;;;;;;12.45;6.65;;;26.50;51.00;;;;;;6169949;28;85024;-76
2022/10/30 13:26:21;;;;;;;17.05;7.55;;;26.50;50.90;;;;;;6167664;28;80538;-75
2022/10/30 13:29:22;;;;;;;13.48;6.60;;;26.60;50.80;;;;;;6173639;28;80792;-77
2022/10/30 13:32:22;;;;;;;14.70;6.97;;;26.60;51.00;;;;;;6171128;28;80184;-73
2022/10/30 13:35:23;;;;;;;14.45;7.07;;;26.60;51.00;;;;;;6172801;28;83694;-74
2022/10/30 13:38:23;;;;;;;13.55;6.65;;;26.60;50.90;;;;;;6178404;28;80721;-74
2022/10/30 13:41:24;;;;;;;16.20;6.82;;;26.50;50.90;;;;;;6170476;28;80757;-74
2022/10/30 13:44:24;;;;;;;13.82;7.50;;;26.50;50.80;;;;;;6171455;28;81652;-71
2022/10/30 13:47:25;;;;;;;15.20;7.13;;;26.50;50.70;;;;;;6183192;28;80660;-66
2022/10/30 13:50:25;;;;;;;17.45;7.20;;;26.50;50.70;;;;;;6179343;28;80652;-62
2022/10/30 13:53:26;;;;;;;15.50;7.53;;;26.40;50.70;;;;;;6174568;28;80526;-61
2022/10/30 13:56:26;;;;;;;17.00;7.15;;;26.40;50.80;;;;;;6173569;28;80715;-62
2022/10/30 13:59:27;;;;;;;19.20;7.25;;;26.30;50.80;;;;;;6175414;28;81616;-62
2022/10/30 14:02:27;;;;;;;13.73;6.78;;;26.30;51.00;;;;;;6170069;28;81555;-62
2022/10/30 14:05:28;;;;;;;16.92;6.38;;;26.40;50.90;;;;;;6176856;28;82900;-62
2022/10/30 14:08:29;;;;;;;12.25;6.05;;;26.40;50.90;;;;;;6172770;28;80564;-61
2022/10/30 14:11:29;;;;;;;11.35;6.38;;;26.40;51.00;;;;;;6171796;28;80930;-59
2022/10/30 14:14:30;;;;;;;17.30;7.10;;;26.40;51.20;;;;;;6175198;28;85813;-62
2022/10/30 14:17:30;;;;;;;18.30;6.93;;;26.40;51.50;;;;;;6176044;28;80954;-65
2022/10/30 14:20:31;;;;;;;15.85;7.60;;;26.40;51.60;;;;;;6173964;28;86700;-63
2022/10/30 14:23:31;;;;;;;14.65;6.55;;;26.40;51.30;;;;;;6172561;28;80497;-63
2022/10/30 14:26:32;;;;;;;16.67;6.68;;;26.50;51.40;;;;;;6173530;28;83219;-59
2022/10/30 14:29:33;;;;;;;19.48;7.38;;;26.40;50.90;;;;;;6174893;28;81382;-59
2022/10/30 14:32:33;;;;;;;15.80;8.10;;;26.50;51.40;;;;;;6174360;28;86953;-59
2022/10/30 14:35:34;;;;;;;14.80;7.95;;;26.40;51.90;;;;;;6187351;28;80375;-59
2022/10/30 14:38:34;;;;;;;12.82;7.32;;;26.40;51.50;;;;;;6177130;28;80442;-58
2022/10/30 14:41:35;;;;;;;17.13;7.72;;;26.40;51.40;;;;;;6174310;28;80454;-59
2022/10/30 14:44:35;;;;;;;21.73;7.20;;;26.30;51.50;;;;;;6179562;28;80944;-77
2022/10/30 14:47:36;;;;;;;16.77;8.48;;;26.30;51.60;;;;;;6181538;28;80957;-68
2022/10/30 14:50:36;;;;;;;15.93;7.20;;;26.20;51.60;;;;;;6181433;28;80075;-69
2022/10/30 14:53:37;;;;;;;18.27;8.15;;;26.20;51.80;;;;;;6179985;28;81660;-64
2022/10/30 14:56:37;;;;;;;19.38;8.27;;;26.20;51.80;;;;;;6178677;28;87229;-68
2022/10/30 14:59:38;;;;;;;15.50;7.93;;;26.10;51.80;;;;;;6177031;28;80867;-71
2022/10/30 15:02:38;;;;;;;26.27;8.60;;;26.10;52.10;;;;;;6176605;28;84364;-62
2022/10/30 15:05:39;;;;;;;19.80;7.47;;;26.00;52.20;;;;;;6179803;28;80768;-60
2022/10/30 15:08:40;;;;;;;16.30;7.28;;;26.00;52.10;;;;;;6176736;28;81157;-61
2022/10/30 15:11:40;;;;;;;19.63;7.25;;;26.00;52.30;;;;;;6176093;28;80541;-58
2022/10/30 15:14:41;;;;;;;19.85;7.80;;;25.90;52.40;;;;;;6177485;28;80956;-64
2022/10/30 15:17:41;;;;;;;20.02;6.95;;;26.00;52.70;;;;;;6178752;28;83867;-60
2022/10/30 15:20:42;;;;;;;14.98;7.72;;;25.90;52.60;;;;;;6178161;28;80406;-61
2022/10/30 15:23:42;;;;;;;19.52;7.07;;;26.00;52.70;;;;;;6171273;28;81483;-62
2022/10/30 15:26:43;;;;;;;23.80;7.22;;;25.90;52.80;;;;;;6194347;28;86364;-62
2022/10/30 15:29:43;;;;;;;24.95;7.78;;;26.00;53.00;;;;;;6195738;28;80191;-63
2022/10/30 15:32:44;;;;;;;15.73;6.50;;;25.90;53.20;;;;;;6175574;28;84258;-62
2022/10/30 15:35:44;;;;;;;14.00;7.07;;;25.90;53.30;;;;;;6191570;28;86007;-63